Da Xian, China
Current Conditions -  °F | °C
As of 3:00 AM on Friday 31 Oct 2014 (Local Time) from ZUCK Reporting Station
Clear Clear  
Wind Chill: 18°   Ceiling: Unl
Heat Index: 18°   Visibility: 6mi
Dew Point: 15°   Wind: 9mph
Humidity: 83%   Direction: 10°N
Pressure: 29.97"   Gusts: NA
Location:  31.2°N, 107.5°E
Report Text: ZUCK 301900Z 01004MPS CAVOK 18/15 Q1015 NOSIG
Loading
Personal Weather Stations






























Interactive Weather Map
Tropical Storm Tracking
New forecast layout! Learn more

10-Day Weather Forecast

Advertisements
Track Severe Weather on mobile